Time,TemperatureF,DewpointF,PressureIn,WindDirection,WindDirectionDegrees,WindSpeedMPH,WindSpeedGustMPH,Humidity,HourlyPrecipIn,Conditions,Clouds,dailyrainin,SoftwareType,DateUTC
2013-04-13 00:05:00,30.9,25.5,30.04,NW,315,4.0,4.0,80,0.00,,,0.00,Wunderground v.1.15,2013-04-13 05:05:00,
2013-04-13 00:15:00,30.7,25.3,30.05,NW,304,4.0,4.0,80,0.00,,,0.00,Wunderground v.1.15,2013-04-13 05:15:00,
2013-04-13 00:25:00,30.6,25.5,30.05,WNW,288,4.0,4.0,81,0.00,,,0.00,Wunderground v.1.15,2013-04-13 05:25:00,
2013-04-13 00:30:00,30.5,25.4,30.05,WNW,296,4.0,6.0,81,0.00,,,0.00,Wunderground v.1.15,2013-04-13 05:30:00,
2013-04-13 00:40:00,30.3,25.2,30.05,WNW,295,4.0,4.0,81,0.00,,,0.00,Wunderground v.1.15,2013-04-13 05:40:00,
2013-04-13 00:50:00,30.2,25.1,30.05,WNW,296,3.0,3.0,81,0.00,,,0.00,Wunderground v.1.15,2013-04-13 05:50:00,
2013-04-13 00:55:00,30.1,25.0,30.05,WNW,296,3.0,6.0,81,0.00,,,0.00,Wunderground v.1.15,2013-04-13 05:55:00,
2013-04-13 01:05:00,29.9,24.8,30.06,WNW,295,3.0,3.0,81,0.00,,,0.00,Wunderground v.1.15,2013-04-13 06:05:00,
2013-04-13 01:15:00,29.8,25.0,30.06,WNW,296,3.0,3.0,82,0.00,,,0.00,Wunderground v.1.15,2013-04-13 06:15:00,
2013-04-13 01:20:00,29.7,24.9,30.06,WNW,296,3.0,3.0,82,0.00,,,0.00,Wunderground v.1.15,2013-04-13 06:20:00,
2013-04-13 01:30:00,29.5,24.7,30.06,WNW,296,2.0,2.0,82,0.00,,,0.00,Wunderground v.1.15,2013-04-13 06:30:00,
2013-04-13 01:40:00,29.3,24.5,30.05,WNW,296,3.0,3.0,82,0.00,,,0.00,Wunderground v.1.15,2013-04-13 06:40:00,
2013-04-13 01:45:00,29.2,24.4,30.05,WNW,296,2.0,3.0,82,0.00,,,0.00,Wunderground v.1.15,2013-04-13 06:45:00,
2013-04-13 01:55:00,29.2,24.4,30.05,WNW,296,2.0,2.0,82,0.00,,,0.00,Wunderground v.1.15,2013-04-13 06:55:00,
2013-04-13 02:10:00,29.2,24.7,30.05,WNW,296,2.0,2.0,83,0.00,,,0.00,Wunderground v.1.15,2013-04-13 07:10:00,
2013-04-13 02:20:00,29.1,24.6,30.05,WNW,296,1.0,1.0,83,0.00,,,0.00,Wunderground v.1.15,2013-04-13 07:20:00,
2013-04-13 02:30:00,29.0,24.5,30.04,WNW,296,1.0,2.0,83,0.00,,,0.00,Wunderground v.1.15,2013-04-13 07:30:00,
2013-04-13 02:40:00,29.1,24.9,30.03,WNW,296,1.0,1.0,84,0.00,,,0.00,Wunderground v.1.15,2013-04-13 07:40:00,
2013-04-13 02:50:00,29.2,25.0,30.03,WNW,296,1.0,2.0,84,0.00,,,0.00,Wunderground v.1.15,2013-04-13 07:50:00,
2013-04-13 02:55:00,29.2,25.0,30.03,WNW,296,1.0,2.0,84,0.00,,,0.00,Wunderground v.1.15,2013-04-13 07:55:00,
2013-04-13 03:05:00,29.0,24.8,30.03,WNW,296,1.0,3.0,84,0.00,,,0.00,Wunderground v.1.15,2013-04-13 08:05:00,
2013-04-13 03:10:00,29.0,24.8,30.03,WNW,296,2.0,2.0,84,0.00,,,0.00,Wunderground v.1.15,2013-04-13 08:10:00,
2013-04-13 03:30:00,28.6,24.4,30.04,WNW,296,2.0,2.0,84,0.00,,,0.00,Wunderground v.1.15,2013-04-13 08:30:00,
2013-04-13 03:35:00,28.5,24.6,30.04,WNW,296,2.0,2.0,85,0.00,,,0.00,Wunderground v.1.15,2013-04-13 08:35:00,
2013-04-13 03:45:00,28.5,24.6,30.04,WNW,295,2.0,2.0,85,0.00,,,0.00,Wunderground v.1.15,2013-04-13 08:45:00,
2013-04-13 03:55:00,28.5,24.6,30.03,WNW,295,1.0,2.0,85,0.00,,,0.00,Wunderground v.1.15,2013-04-13 08:55:00,
2013-04-13 04:00:00,28.5,24.8,30.03,WNW,295,1.0,1.0,86,0.00,,,0.00,Wunderground v.1.15,2013-04-13 09:00:00,
2013-04-13 04:15:00,28.5,24.8,30.03,WNW,295,1.0,1.0,86,0.00,,,0.00,Wunderground v.1.15,2013-04-13 09:15:00,
2013-04-13 04:20:00,28.5,24.8,30.03,WNW,295,2.0,2.0,86,0.00,,,0.00,Wunderground v.1.15,2013-04-13 09:20:00,
2013-04-13 04:25:00,28.5,24.8,30.03,WNW,295,2.0,2.0,86,0.00,,,0.00,Wunderground v.1.15,2013-04-13 09:25:00,
2013-04-13 04:30:00,28.5,24.8,30.03,WNW,295,2.0,2.0,86,0.00,,,0.00,Wunderground v.1.15,2013-04-13 09:30:00,
2013-04-13 04:40:00,28.4,24.7,30.03,WNW,295,0.0,3.0,86,0.00,,,0.00,Wunderground v.1.15,2013-04-13 09:40:00,
2013-04-13 04:50:00,28.3,24.6,30.03,WNW,295,2.0,2.0,86,0.00,,,0.00,Wunderground v.1.15,2013-04-13 09:50:00,
2013-04-13 05:00:00,28.1,24.5,30.04,WNW,295,1.0,1.0,86,0.00,,,0.00,Wunderground v.1.15,2013-04-13 10:00:00,
2013-04-13 05:05:00,28.0,24.4,30.04,WNW,295,1.0,2.0,86,0.00,,,0.00,Wunderground v.1.15,2013-04-13 10:05:00,
2013-04-13 05:15:00,27.8,24.2,30.03,WNW,295,1.0,1.0,86,0.00,,,0.00,Wunderground v.1.15,2013-04-13 10:15:00,
2013-04-13 05:30:00,27.5,24.1,30.03,WNW,295,0.0,0.0,87,0.00,,,0.00,Wunderground v.1.15,2013-04-13 10:30:00,
2013-04-13 05:35:00,27.3,23.9,30.03,WNW,295,0.0,0.0,87,0.00,,,0.00,Wunderground v.1.15,2013-04-13 10:35:00,
2013-04-13 05:50:00,27.1,23.7,30.03,WNW,295,0.0,0.0,87,0.00,,,0.00,Wunderground v.1.15,2013-04-13 10:50:00,
2013-04-13 06:00:00,26.9,23.5,30.03,WNW,295,0.0,0.0,87,0.00,,,0.00,Wunderground v.1.15,2013-04-13 11:00:00,
2013-04-13 06:05:00,26.8,23.4,30.03,WNW,295,0.0,0.0,87,0.00,,,0.00,Wunderground v.1.15,2013-04-13 11:05:00,
2013-04-13 06:15:00,26.6,23.3,30.02,WNW,295,0.0,0.0,87,0.00,,,0.00,Wunderground v.1.15,2013-04-13 11:15:00,
2013-04-13 06:20:00,26.5,23.2,30.02,WNW,295,0.0,2.0,87,0.00,,,0.00,Wunderground v.1.15,2013-04-13 11:20:00,
2013-04-13 06:30:00,26.3,23.0,30.02,WNW,295,1.0,2.0,87,0.00,,,0.00,Wunderground v.1.15,2013-04-13 11:30:00,
2013-04-13 06:40:00,26.2,22.9,30.02,WNW,295,2.0,2.0,87,0.00,,,0.00,Wunderground v.1.15,2013-04-13 11:40:00,
2013-04-13 06:50:00,26.1,22.8,30.02,WNW,295,1.0,1.0,87,0.00,,,0.00,Wunderground v.1.15,2013-04-13 11:50:00,
2013-04-13 07:10:00,26.6,23.5,30.03,WNW,295,2.0,2.0,88,0.00,,,0.00,Wunderground v.1.15,2013-04-13 12:10:00,
2013-04-13 07:20:00,26.7,23.6,30.03,WNW,295,1.0,1.0,88,0.00,,,0.00,Wunderground v.1.15,2013-04-13 12:20:00,
2013-04-13 07:30:00,27.0,23.9,30.04,WNW,295,2.0,2.0,88,0.00,,,0.00,Wunderground v.1.15,2013-04-13 12:30:00,
2013-04-13 07:40:00,27.4,24.3,30.03,WNW,295,1.0,1.0,88,0.00,,,0.00,Wunderground v.1.15,2013-04-13 12:40:00,
2013-04-13 07:45:00,27.7,24.9,30.03,WNW,295,0.0,1.0,89,0.00,,,0.00,Wunderground v.1.15,2013-04-13 12:45:00,
2013-04-13 07:50:00,28.0,25.2,30.03,WNW,295,0.0,0.0,89,0.00,,,0.00,Wunderground v.1.15,2013-04-13 12:50:00,
2013-04-13 08:00:00,29.1,26.3,30.05,SSW,204,4.0,6.0,89,0.00,,,0.00,Wunderground v.1.15,2013-04-13 13:00:00,
2013-04-13 08:05:00,29.5,26.7,30.05,South,179,6.0,6.0,89,0.00,,,0.00,Wunderground v.1.15,2013-04-13 13:05:00,
2013-04-13 08:15:00,30.0,27.2,30.05,SSW,209,4.0,5.0,89,0.00,,,0.00,Wunderground v.1.15,2013-04-13 13:15:00,
2013-04-13 08:25:00,31.0,28.1,30.05,SSW,208,3.0,6.0,89,0.00,,,0.00,Wunderground v.1.15,2013-04-13 13:25:00,
2013-04-13 08:30:00,31.5,28.4,30.05,SW,222,4.0,4.0,88,0.00,,,0.00,Wunderground v.1.15,2013-04-13 13:30:00,
2013-04-13 08:40:00,32.8,29.6,30.04,SW,229,3.0,3.0,88,0.00,,,0.00,Wunderground v.1.15,2013-04-13 13:40:00,
2013-04-13 08:50:00,34.0,30.3,30.04,SW,233,3.0,3.0,86,0.00,,,0.00,Wunderground v.1.15,2013-04-13 13:50:00,
2013-04-13 09:00:00,35.2,30.9,30.03,SW,233,3.0,3.0,84,0.00,,,0.00,Wunderground v.1.15,2013-04-13 14:00:00,
2013-04-13 09:05:00,35.9,30.9,30.03,SW,233,2.0,3.0,82,0.00,,,0.00,Wunderground v.1.15,2013-04-13 14:05:00,
2013-04-13 09:15:00,37.3,31.1,30.03,WSW,238,3.0,4.0,78,0.00,,,0.00,Wunderground v.1.15,2013-04-13 14:15:00,
2013-04-13 09:25:00,37.8,30.6,30.03,SW,235,4.0,5.0,75,0.00,,,0.00,Wunderground v.1.15,2013-04-13 14:25:00,
2013-04-13 09:40:00,39.0,30.0,30.03,SW,229,4.0,6.0,70,0.00,,,0.00,Wunderground v.1.15,2013-04-13 14:40:00,
2013-04-13 09:50:00,39.2,29.9,30.03,South,186,4.0,5.0,69,0.00,,,0.00,Wunderground v.1.15,2013-04-13 14:50:00,
2013-04-13 10:00:00,39.7,30.4,30.02,SSW,200,3.0,4.0,69,0.00,,,0.00,Wunderground v.1.15,2013-04-13 15:00:00,
2013-04-13 10:05:00,39.7,29.3,30.02,SSW,200,3.0,4.0,66,0.00,,,0.00,Wunderground v.1.15,2013-04-13 15:05:00,
2013-04-13 10:15:00,41.2,30.7,30.01,SSW,196,2.0,2.0,66,0.00,,,0.00,Wunderground v.1.15,2013-04-13 15:15:00,
2013-04-13 10:25:00,42.2,30.9,30.01,SE,144,2.0,6.0,64,0.00,,,0.00,Wunderground v.1.15,2013-04-13 15:25:00,
2013-04-13 10:35:00,43.4,32.0,30.01,SE,143,2.0,4.0,64,0.00,,,0.00,Wunderground v.1.15,2013-04-13 15:35:00,
2013-04-13 10:45:00,45.4,32.3,30.00,South,172,4.0,5.0,60,0.00,,,0.00,Wunderground v.1.15,2013-04-13 15:45:00,
2013-04-13 10:55:00,44.9,32.3,30.00,SE,126,5.0,7.0,61,0.00,,,0.00,Wunderground v.1.15,2013-04-13 15:55:00,
2013-04-13 11:00:00,46.2,33.1,30.00,SSE,160,5.0,6.0,60,0.00,,,0.00,Wunderground v.1.15,2013-04-13 16:00:00,
2013-04-13 11:05:00,46.1,32.1,30.00,SE,132,5.0,6.0,58,0.00,,,0.00,Wunderground v.1.15,2013-04-13 16:05:00,
2013-04-13 11:14:00,47.0,33.8,30.00,SSE,163,6.0,7.0,60,0.00,,,0.00,Wunderground v.1.15,2013-04-13 16:14:00,
2013-04-13 11:20:00,46.6,33.4,30.00,South,183,5.0,5.0,60,0.00,,,0.00,Wunderground v.1.15,2013-04-13 16:20:00,
2013-04-13 11:30:00,47.9,32.9,30.00,SE,143,4.0,4.0,56,0.00,,,0.00,Wunderground v.1.15,2013-04-13 16:30:00,
2013-04-13 11:35:00,47.9,34.7,29.99,SSE,154,4.0,4.0,60,0.00,,,0.00,Wunderground v.1.15,2013-04-13 16:35:00,
2013-04-13 11:45:00,49.2,34.6,29.98,SE,132,6.0,8.0,57,0.00,,,0.00,Wunderground v.1.15,2013-04-13 16:45:00,
2013-04-13 11:55:00,50.1,36.3,29.98,South,176,5.0,5.0,59,0.00,,,0.00,Wunderground v.1.15,2013-04-13 16:55:00,
2013-04-13 12:00:00,50.8,37.4,29.97,SSE,156,5.0,5.0,60,0.00,,,0.00,Wunderground v.1.15,2013-04-13 17:00:00,
2013-04-13 12:05:00,50.0,35.8,29.97,SSW,211,5.0,5.0,58,0.00,,,0.00,Wunderground v.1.15,2013-04-13 17:05:00,
2013-04-13 12:15:00,50.8,35.7,29.97,SSE,149,4.0,6.0,56,0.00,,,0.00,Wunderground v.1.15,2013-04-13 17:15:00,
2013-04-13 12:25:00,51.4,35.8,29.96,South,170,7.0,8.0,55,0.00,,,0.00,Wunderground v.1.15,2013-04-13 17:25:00,
2013-04-13 12:35:00,50.5,36.3,29.96,SE,142,7.0,12.0,58,0.00,,,0.00,Wunderground v.1.15,2013-04-13 17:35:00,
2013-04-13 12:45:00,50.4,37.0,29.96,North,360,7.0,8.0,60,0.00,,,0.00,Wunderground v.1.15,2013-04-13 17:45:00,
2013-04-13 12:50:00,50.5,36.3,29.95,SE,134,6.0,6.0,58,0.00,,,0.00,Wunderground v.1.15,2013-04-13 17:50:00,
2013-04-13 13:05:00,50.9,37.1,29.95,SSE,159,7.0,7.0,59,0.00,,,0.00,Wunderground v.1.15,2013-04-13 18:05:00,
2013-04-13 13:14:00,50.0,35.4,29.94,SSE,156,6.0,7.0,57,0.00,,,0.00,Wunderground v.1.15,2013-04-13 18:14:00,
2013-04-13 13:20:00,50.3,36.1,29.93,SSE,162,6.0,6.0,58,0.00,,,0.00,Wunderground v.1.15,2013-04-13 18:20:00,
2013-04-13 13:25:00,49.9,35.3,29.93,ESE,123,5.0,9.0,57,0.00,,,0.00,Wunderground v.1.15,2013-04-13 18:25:00,
2013-04-13 13:30:00,49.2,35.0,29.93,South,186,6.0,6.0,58,0.00,,,0.00,Wunderground v.1.15,2013-04-13 18:30:00,
2013-04-13 13:35:00,49.9,36.6,29.93,SSE,156,5.0,7.0,60,0.00,,,0.00,Wunderground v.1.15,2013-04-13 18:35:00,
2013-04-13 13:45:00,49.9,36.1,29.92,SE,128,7.0,7.0,59,0.00,,,0.00,Wunderground v.1.15,2013-04-13 18:45:00,
2013-04-13 13:49:00,50.4,36.2,29.91,SE,144,7.0,7.0,58,0.00,,,0.00,Wunderground v.1.15,2013-04-13 18:49:00,
2013-04-13 13:55:00,49.8,35.2,29.91,SE,142,7.0,7.0,57,0.00,,,0.00,Wunderground v.1.15,2013-04-13 18:55:00,
2013-04-13 14:00:00,49.2,35.5,29.91,SSE,147,6.0,8.0,59,0.00,,,0.00,Wunderground v.1.15,2013-04-13 19:00:00,
2013-04-13 14:05:00,49.3,36.0,29.90,SE,131,5.0,8.0,60,0.00,,,0.00,Wunderground v.1.15,2013-04-13 19:05:00,
2013-04-13 14:10:00,49.1,35.8,29.90,ESE,107,6.0,8.0,60,0.00,,,0.00,Wunderground v.1.15,2013-04-13 19:10:00,
2013-04-13 14:20:00,49.9,37.4,29.90,SE,128,5.0,6.0,62,0.00,,,0.00,Wunderground v.1.15,2013-04-13 19:20:00,
2013-04-13 14:30:00,50.1,36.7,29.90,SE,140,6.0,6.0,60,0.00,,,0.00,Wunderground v.1.15,2013-04-13 19:30:00,
2013-04-13 14:35:00,50.0,36.7,29.90,SSE,147,6.0,6.0,60,0.00,,,0.00,Wunderground v.1.15,2013-04-13 19:35:00,
2013-04-13 14:45:00,50.2,37.3,29.89,SE,131,5.0,7.0,61,0.00,,,0.00,Wunderground v.1.15,2013-04-13 19:45:00,
2013-04-13 14:55:00,49.6,37.1,29.89,SE,128,6.0,8.0,62,0.00,,,0.00,Wunderground v.1.15,2013-04-13 19:55:00,
2013-04-13 15:05:00,49.3,36.4,29.87,SE,126,7.0,8.0,61,0.00,,,0.00,Wunderground v.1.15,2013-04-13 20:05:00,
2013-04-13 15:15:00,49.2,37.1,29.87,SE,126,8.0,8.0,63,0.00,,,0.00,Wunderground v.1.15,2013-04-13 20:15:00,
2013-04-13 15:20:00,49.0,36.9,29.86,SE,126,8.0,8.0,63,0.00,,,0.00,Wunderground v.1.15,2013-04-13 20:20:00,
2013-04-13 15:30:00,49.4,37.3,29.86,ESE,107,8.0,8.0,63,0.00,,,0.00,Wunderground v.1.15,2013-04-13 20:30:00,
2013-04-13 15:40:00,49.9,37.0,29.85,ESE,113,8.0,8.0,61,0.00,,,0.00,Wunderground v.1.15,2013-04-13 20:40:00,
2013-04-13 15:45:00,50.4,37.9,29.85,SE,130,9.0,9.0,62,0.00,,,0.00,Wunderground v.1.15,2013-04-13 20:45:00,
2013-04-13 15:55:00,51.0,37.6,29.83,East,92,8.0,10.0,60,0.00,,,0.00,Wunderground v.1.15,2013-04-13 20:55:00,
2013-04-13 16:00:00,51.4,38.0,29.83,East,96,9.0,9.0,60,0.00,,,0.00,Wunderground v.1.15,2013-04-13 21:00:00,
2013-04-13 16:05:00,51.4,38.0,29.83,ENE,67,9.0,9.0,60,0.00,,,0.00,Wunderground v.1.15,2013-04-13 21:05:00,
2013-04-13 16:14:00,52.0,38.5,29.83,ESE,120,10.0,11.0,60,0.00,,,0.00,Wunderground v.1.15,2013-04-13 21:14:00,
2013-04-13 16:20:00,52.7,38.3,29.82,SE,138,10.0,11.0,58,0.00,,,0.00,Wunderground v.1.15,2013-04-13 21:20:00,
2013-04-13 16:25:00,52.3,38.4,29.82,SE,135,10.0,14.0,59,0.00,,,0.00,Wunderground v.1.15,2013-04-13 21:25:00,
2013-04-13 16:35:00,52.4,38.0,29.80,SSE,148,9.0,10.0,58,0.00,,,0.00,Wunderground v.1.15,2013-04-13 21:35:00,
2013-04-13 16:45:00,52.2,37.9,29.81,SE,130,10.0,10.0,58,0.00,,,0.00,Wunderground v.1.15,2013-04-13 21:45:00,
2013-04-13 16:50:00,52.3,38.0,29.80,SE,129,9.0,10.0,58,0.00,,,0.00,Wunderground v.1.15,2013-04-13 21:50:00,
2013-04-13 17:00:00,52.8,38.9,29.80,SE,139,8.0,16.0,59,0.00,,,0.00,Wunderground v.1.15,2013-04-13 22:00:00,
2013-04-13 17:05:00,52.8,38.4,29.80,ESE,111,10.0,16.0,58,0.00,,,0.00,Wunderground v.1.15,2013-04-13 22:05:00,
2013-04-13 17:10:00,52.6,38.2,29.80,ESE,104,11.0,12.0,58,0.00,,,0.00,Wunderground v.1.15,2013-04-13 22:10:00,
2013-04-13 17:20:00,52.1,38.2,29.80,South,173,9.0,9.0,59,0.00,,,0.00,Wunderground v.1.15,2013-04-13 22:20:00,
2013-04-13 17:25:00,52.1,38.6,29.80,SE,128,9.0,9.0,60,0.00,,,0.00,Wunderground v.1.15,2013-04-13 22:25:00,
2013-04-13 17:35:00,51.9,38.4,29.79,ESE,120,10.0,16.0,60,0.00,,,0.00,Wunderground v.1.15,2013-04-13 22:35:00,
2013-04-13 17:45:00,52.6,39.1,29.79,ESE,117,9.0,10.0,60,0.00,,,0.00,Wunderground v.1.15,2013-04-13 22:45:00,
2013-04-13 17:50:00,52.5,38.1,29.78,SE,145,10.0,11.0,58,0.00,,,0.00,Wunderground v.1.15,2013-04-13 22:50:00,
2013-04-13 18:00:00,52.3,38.4,29.78,ESE,108,11.0,12.0,59,0.00,,,0.00,Wunderground v.1.15,2013-04-13 23:00:00,
2013-04-13 18:05:00,52.2,38.7,29.78,ESE,107,10.0,17.0,60,0.00,,,0.00,Wunderground v.1.15,2013-04-13 23:05:00,
2013-04-13 18:15:00,51.8,38.3,29.78,East,101,10.0,10.0,60,0.00,,,0.00,Wunderground v.1.15,2013-04-13 23:15:00,
2013-04-13 18:25:00,51.9,38.9,29.78,ESE,111,10.0,15.0,61,0.00,,,0.00,Wunderground v.1.15,2013-04-13 23:25:00,
2013-04-13 18:35:00,52.1,39.1,29.78,SE,125,10.0,11.0,61,0.00,,,0.00,Wunderground v.1.15,2013-04-13 23:35:00,
2013-04-13 18:44:00,51.5,38.5,29.77,SE,143,10.0,10.0,61,0.00,,,0.00,Wunderground v.1.15,2013-04-13 23:44:00,
2013-04-13 18:50:00,51.4,38.0,29.77,ESE,107,10.0,10.0,60,0.00,,,0.00,Wunderground v.1.15,2013-04-13 23:50:00,
2013-04-13 18:59:00,51.3,37.9,29.76,ESE,123,12.0,12.0,60,0.00,,,0.00,Wunderground v.1.15,2013-04-13 23:59:00,
2013-04-13 19:05:00,51.3,37.9,29.76,ESE,118,12.0,15.0,60,0.00,,,0.00,Wunderground v.1.15,2013-04-14 00:05:00,
2013-04-13 19:15:00,51.1,38.1,29.75,ESE,108,11.0,20.0,61,0.00,,,0.00,Wunderground v.1.15,2013-04-14 00:15:00,
2013-04-13 19:25:00,50.6,38.1,29.75,ESE,105,10.0,11.0,62,0.00,,,0.00,Wunderground v.1.15,2013-04-14 00:25:00,
2013-04-13 19:34:00,50.1,38.0,29.75,ESE,119,10.0,13.0,63,0.00,,,0.00,Wunderground v.1.15,2013-04-14 00:34:00,
2013-04-13 19:40:00,49.8,37.7,29.74,ESE,115,10.0,10.0,63,0.00,,,0.00,Wunderground v.1.15,2013-04-14 00:40:00,
2013-04-13 19:50:00,49.2,37.5,29.74,ESE,123,10.0,10.0,64,0.00,,,0.00,Wunderground v.1.15,2013-04-14 00:50:00,
2013-04-13 20:00:00,48.8,37.6,29.73,SE,124,10.0,14.0,65,0.00,,,0.00,Wunderground v.1.15,2013-04-14 01:00:00,
2013-04-13 20:05:00,48.7,37.5,29.73,ESE,107,11.0,14.0,65,0.00,,,0.00,Wunderground v.1.15,2013-04-14 01:05:00,
2013-04-13 20:15:00,48.3,37.5,29.73,SE,144,10.0,11.0,66,0.00,,,0.00,Wunderground v.1.15,2013-04-14 01:15:00,
2013-04-13 20:25:00,48.0,37.6,29.73,North,360,10.0,10.0,67,0.00,,,0.00,Wunderground v.1.15,2013-04-14 01:25:00,
2013-04-13 20:30:00,47.8,37.4,29.73,ESE,120,9.0,9.0,67,0.00,,,0.00,Wunderground v.1.15,2013-04-14 01:30:00,
2013-04-13 20:40:00,47.7,37.7,29.73,ESE,115,11.0,11.0,68,0.00,,,0.00,Wunderground v.1.15,2013-04-14 01:40:00,
2013-04-13 20:49:00,47.4,37.4,29.74,ESE,109,9.0,10.0,68,0.00,,,0.00,Wunderground v.1.15,2013-04-14 01:49:00,
2013-04-13 20:55:00,47.3,37.3,29.74,ESE,119,10.0,10.0,68,0.00,,,0.00,Wunderground v.1.15,2013-04-14 01:55:00,
2013-04-13 21:05:00,47.0,37.4,29.74,ENE,76,10.0,14.0,69,0.00,,,0.00,Wunderground v.1.15,2013-04-14 02:05:00,
2013-04-13 21:15:00,46.7,37.4,29.74,East,84,10.0,10.0,70,0.00,,,0.00,Wunderground v.1.15,2013-04-14 02:15:00,
2013-04-13 21:25:00,46.5,37.2,29.74,ENE,78,11.0,11.0,70,0.00,,,0.00,Wunderground v.1.15,2013-04-14 02:25:00,
2013-04-13 21:34:00,46.4,37.1,29.74,ESE,108,12.0,12.0,70,0.00,,,0.00,Wunderground v.1.15,2013-04-14 02:34:00,
2013-04-13 21:40:00,46.3,37.4,29.74,East,95,11.0,11.0,71,0.00,,,0.00,Wunderground v.1.15,2013-04-14 02:40:00,
2013-04-13 21:50:00,46.1,37.2,29.74,ESE,107,11.0,11.0,71,0.00,,,0.00,Wunderground v.1.15,2013-04-14 02:50:00,
2013-04-13 22:00:00,45.9,37.4,29.74,SE,129,11.0,11.0,72,0.00,,,0.00,Wunderground v.1.15,2013-04-14 03:00:00,
2013-04-13 22:05:00,45.8,37.3,29.74,East,99,10.0,11.0,72,0.00,,,0.00,Wunderground v.1.15,2013-04-14 03:05:00,
2013-04-13 22:10:00,45.8,37.3,29.74,ESE,103,11.0,11.0,72,0.00,,,0.00,Wunderground v.1.15,2013-04-14 03:10:00,
2013-04-13 22:20:00,45.6,37.4,29.73,East,101,11.0,16.0,73,0.00,,,0.00,Wunderground v.1.15,2013-04-14 03:20:00,
2013-04-13 22:25:00,45.5,38.4,29.73,East,88,12.0,16.0,76,0.00,,,0.00,Wunderground v.1.15,2013-04-14 03:25:00,
2013-04-13 22:35:00,45.3,37.2,29.72,ESE,103,12.0,13.0,73,0.00,,,0.00,Wunderground v.1.15,2013-04-14 03:35:00,
2013-04-13 22:45:00,45.2,37.4,29.72,ESE,113,11.0,12.0,74,0.00,,,0.00,Wunderground v.1.15,2013-04-14 03:45:00,
2013-04-13 22:50:00,45.0,37.2,29.71,East,82,11.0,16.0,74,0.00,,,0.00,Wunderground v.1.15,2013-04-14 03:50:00,
2013-04-13 23:00:00,45.1,37.3,29.71,East,86,12.0,14.0,74,0.00,,,0.00,Wunderground v.1.15,2013-04-14 04:00:00,
2013-04-13 23:05:00,45.1,37.3,29.71,ESE,102,12.0,14.0,74,0.00,,,0.00,Wunderground v.1.15,2013-04-14 04:05:00,
2013-04-13 23:10:00,45.1,37.3,29.71,ENE,63,11.0,11.0,74,0.00,,,0.00,Wunderground v.1.15,2013-04-14 04:10:00,
2013-04-13 23:14:00,45.1,37.3,29.71,East,98,11.0,11.0,74,0.00,,,0.00,Wunderground v.1.15,2013-04-14 04:14:00,
2013-04-13 23:20:00,45.1,37.3,29.71,ENE,71,10.0,11.0,74,0.00,,,0.00,Wunderground v.1.15,2013-04-14 04:20:00,
2013-04-13 23:25:00,45.1,37.3,29.70,ESE,103,10.0,11.0,74,0.00,,,0.00,Wunderground v.1.15,2013-04-14 04:25:00,
2013-04-13 23:35:00,45.0,37.2,29.69,East,92,12.0,14.0,74,0.00,,,0.00,Wunderground v.1.15,2013-04-14 04:35:00,
2013-04-13 23:40:00,45.0,37.2,29.69,East,88,11.0,11.0,74,0.00,,,0.00,Wunderground v.1.15,2013-04-14 04:40:00,
2013-04-13 23:50:00,45.0,37.2,29.68,ESE,103,11.0,15.0,74,0.00,,,0.00,Wunderground v.1.15,2013-04-14 04:50:00,